Chevrolet Corvette 1984-1996 (C4)

Collector vehicles for sale.
User avatar
Feed
Site Admin
Posts: 2552
Joined: Fri Jul 31, 2020 9:57 am

Chevrolet Corvette 1984-1996 (C4)

Post by Feed »

Looking for something else? Check the Directory for what you're after. Don't see it? Make a request.
Trying to sell one, test the waters, or just show off? Post it in our Readers' Rides section.
If you like this kind of thing, subscribe to our mailing list for updates. It's worth your time, I promise. Something broken? Have an idea? Come say hi in our Discord server.

Image Year Title Mileage Price City State Date Found
Image 1984 Chevrolet Corvette 110000 $3000 Denver Colorado 2020-10-22
Image 1984 Chevrolet Corvette 55000 $11500 Las Vegas Nevada 2020-10-22
Image 1984 Chevrolet Corvette Coupe 2D 120000 $4500 Old Bridge New Jersey 2020-10-22
Image 1984 Chevrolet Corvette 104000 $4000 East St Louis Illinois 2020-10-22
Image 1984 Chevrolet Corvette Hatchback Coupe 2D 23000 $9500 Westminster Maryland 2020-10-21
Image 1984 Chevrolet Corvette Convertible 2D 123000 $12345 Anthony New Mexico 2020-10-21
Image 1984 Chevrolet Corvette Coupe 2D 54000 $10000 Sharpsburg Georgia 2020-10-21
Image 1984 Chevrolet Corvette 5000 $4000 Plant City Florida 2020-10-21
Image 1984 Chevrolet Corvette Z06 Hard Top 2D 436000 $3625 Los Angeles California 2020-10-18
Image 1984 Chevrolet Corvette 75000 $4000 Berlin Michigan 2020-10-18
Image 1984 Chevrolet Corvette ZR1 Hatchback Coupe 2D 14000 $7000 Sarasota Florida 2020-10-18
Image 1984 Chevrolet Corvette 105000 $1500 Indianapolis IN 2020-10-18
Image 1984 Chevrolet Corvette Coupe 2D 106000 $4995 York Pennsylvania 2020-10-18
Image 1984 Chevrolet Corvette 107000 $7500 Houston Texas 2020-10-17
Image 1984 Chevrolet Corvette Hatchback Coupe 2D 127000 $3000 Stockton California 2020-10-17
Image 1984 Chevrolet Corvette Coupe 2D 144000 $1350 Wilton California 2020-10-17
Image 1984 Chevrolet Corvette Not z06 zr1 145000 $3999 Portland Oregon 2020-10-17
Image 1984 Chevrolet Corvette Coupe 2D 100000 $7000 Louisville Kentucky 2020-10-17
Image 1984 Chevrolet Corvette 104000 $8500 Detroit Michigan 2020-10-17
Image 1984 Chevrolet Corvette Coupe 2D 76000 $3600 Stockton California 2020-10-17
Image 1984 Chevrolet Corvette Hatchback Coupe 2D 53000 $7200 Aurora Illinois 2020-10-12
Image 1984 Chevrolet Corvette Coupe 2D 145000 $4450 Salem Oregon 2020-10-12
Image 1984 Chevrolet Corvette 123000 $12345 Canutillo Texas 2020-10-12
Image 1984 Chevrolet Corvette Coupe 2D 127000 $1460 Alameda California 2020-10-12
Image 1984 Chevrolet Corvette Hatchback Coupe 2D 141000 $5000 Independence Missouri 2020-10-12
Image 1984 Chevrolet Corvette 89000 $6000 Blue Springs Missouri 2020-10-12
Image 1984 Chevrolet Corvette Coupe 2D 53000 $8500 Pittsburgh Pennsylvania 2020-10-12
Image 1984 Chevrolet Corvette 125000 $6500 Ponchatoula Louisiana 2020-10-12
Image 1984 Chevrolet Corvette Coupe 2D 125000 $6500 Ponchatoula Louisiana 2020-10-12
Image 1984 Chevrolet Corvette 82000 $4500 Irwin Pennsylvania 2020-10-10
Image 1984 Chevrolet Corvette Hatchback Coupe 2D 82000 $4500 Greensburg Pennsylvania 2020-10-10
Image 1984 Chevrolet Corvette Hard Top 2D 110000 $5000 Westville Indiana 2020-10-10
Image 1984 Chevrolet Corvette Hard Top Coupe 2D 145000 $4499 Portland Oregon 2020-10-10
Image 1984 Chevrolet Corvette Hard Top 2D 24000 $9500 Minneapolis Minnesota 2020-10-10
Image 1984 Chevrolet Corvette Hard Top 2D 174000 $2150 Independence Missouri 2020-10-10
Image 1984 Chevrolet Corvette Convertible 2D 47000 $12500 Milwaukee Wisconsin 2020-10-10
Image 1984 Chevrolet Corvette Convertible 2D 438000 $4200 Orange California 2020-10-10
Image 1984 Chevrolet Corvette Coupe 2D 1000 $10000 Torrance California 2020-10-10
Image 1984 Chevrolet Corvette removable top, 60000 $3750 De Soto Missouri 2020-10-10
Image 1985 Chevrolet Corvette Convertible 2D 72000 $5000 San Juan Bautista California 2020-10-22
Image 1985 Chevrolet Corvette Coupe 2D 138000 $12500 Waterford Michigan 2020-10-22
Image 1985 Chevrolet Corvette Coupe 2D 87000 $9222 Parker Colorado 2020-10-22
Image 1985 Chevrolet Corvette Hard Top Coupe 2D 110000 $3000 Kingsland Georgia 2020-10-22
Image 1985 Chevrolet Corvette Coupe 2D 210000 $2500 Casa Grande Arizona 2020-10-21
Image 1985 Chevrolet Corvette Coupe 2D 82000 $4200 Louisville Kentucky 2020-10-18
Image 1985 Chevrolet Corvette Hatchback Coupe 2D 140000 $8000 Sherborn Massachusetts 2020-10-18
Image 1985 Chevrolet Corvette 123000 $4000 Magnetic Springs Ohio 2020-10-18
Image 1985 Chevrolet Corvette 285000 $3499 Houston Texas 2020-10-18
Image 1985 Chevrolet Corvette 98000 $3500 Longmont Colorado 2020-10-18
Image 1985 Chevrolet Corvette 175000 $3500 Indianapolis IN 2020-10-18
Image 1985 Chevrolet Corvette Hatchback Coupe 2D 116000 $4000 Abita Springs Louisiana 2020-10-18
Image 1985 Chevrolet Corvette 106000 $3000 Grove City Ohio 2020-10-17
Image 1985 Chevrolet Corvette Convertible 2D 78000 $5250 Independence Missouri 2020-10-17
Image 1985 Chevrolet Corvette Coupe 2D 129000 $2800 Bethpage New York 2020-10-17
Image 1985 Chevrolet Corvette 25000 $7000 Verona New Jersey 2020-10-17
Image 1985 Chevrolet Corvette Coupe 2D 130000 $3000 Ferndale Michigan 2020-10-17
Image 1985 Chevrolet Corvette Coupe 2D 95000 $6500 Howell Michigan 2020-10-17
Image 1985 Chevrolet Corvette Coupe 2D 174000 $6000 Fruitland Park Florida 2020-10-17
Image 1985 Chevrolet Corvette 141000 $4400 Merritt Island Florida 2020-10-17
Image 1985 Chevrolet Corvette Coupe 2D 114000 $3500 Encinitas California 2020-10-17
Image 1985 Chevrolet Corvette Hatchback Coupe 2D 110000 $6000 Griffin Georgia 2020-10-12
Image 1985 Chevrolet Corvette Hard Top 2D 150000 $2000 Lewisville Texas 2020-10-12
Image 1985 Chevrolet Corvette Coupe 2D 90000 $6800 Minneapolis Minnesota 2020-10-12
Image 1985 Chevrolet Corvette Hatchback Coupe 2D 68000 $6500 Michigan City IN 2020-10-12
Image 1985 Chevrolet Corvette Hard Top 2D 54000 $7600 Murfreesboro Tennessee 2020-10-12
Image 1985 Chevrolet Corvette Hard Top Coupe 2D 78000 $5250 Independence Missouri 2020-10-12
Image 1985 Chevrolet Corvette Coupe 2D 87000 $5500 Denver Colorado 2020-10-12
Image 1985 Chevrolet Corvette Coupe 2D 115000 $4000 Indianapolis IN 2020-10-12
Image 1985 Chevrolet Corvette Hard Top Coupe 2D 200000 $6500 Vineland New Jersey 2020-10-10
Image 1985 Chevrolet Corvette Hard Top Coupe 2D 104000 $7200 Fairfield California 2020-10-10
Image 1985 Chevrolet Corvette Coupe 2D 155000 $5000 Gastonia North Carolina 2020-10-10
Image 1985 Chevrolet Corvette Hatchback Coupe 2D 90000 $6500 Cypress Texas 2020-10-10
Image 1985 Chevrolet Corvette 113000 $3000 Grandview Missouri 2020-10-10
Image 1985 Chevrolet Corvette Hard Top 2D 93000 $6800 Bell Gardens California 2020-10-10
Image 1985 Chevrolet Corvette Hatchback Coupe 2D 80000 $2500 Temple Georgia 2020-10-10
Image 1986 Chevrolet Corvette Hard Top Coupe 2D 128000 $6500 San Diego California 2020-10-22
Image 1986 Chevrolet Corvette Coupe 2D 108000 $4000 Yulee Florida 2020-10-22
Image 1986 Chevrolet Corvette Convertible 2D 84000 $12000 Acworth Georgia 2020-10-21
Image 1986 Chevrolet Corvette Coupe 2D 91000 $8250 Apollo Beach Florida 2020-10-21
Image 1986 Chevrolet Corvette 165000 $3000 Columbus Ohio 2020-10-18
Image 1986 Chevrolet Corvette 140000 $5000 Tucson Arizona 2020-10-18
Image 1986 Chevrolet Corvette Coupe 2D 140000 $5000 Tucson Arizona 2020-10-18
Image 1986 Chevrolet Corvette Hatchback Coupe 2D 100000 $8000 Las Vegas Nevada 2020-10-18
Image 1986 Chevrolet Corvette Coupe 2D 137000 $8000 Columbus Ohio 2020-10-17
Image 1986 Chevrolet Corvette Convertible 2D 142000 $3150 Falls Church Virginia 2020-10-17
Image 1986 Chevrolet Corvette Coupe 2D 59000 $7000 Brooklyn New York 2020-10-17
Image 1986 Chevrolet Corvette Hard Top Coupe 2D 122000 $5500 Detroit Michigan 2020-10-17
Image 1986 Chevrolet Corvette Coupe 2D 111000 $765 Salinas California 2020-10-17
Image 1986 Chevrolet Corvette Convertible 2D 127000 $6000 Dallas Texas 2020-10-12
Image 1986 Chevrolet Corvette 125000 $3800 Marion Ohio 2020-10-12
Image 1986 Chevrolet Corvette Convertible 2D 129000 $3800 Elk Grove California 2020-10-12
Image 1986 Chevrolet Corvette 84000 $3500 Shelby North Carolina 2020-10-12
Image 1986 Chevrolet Corvette Coupe 2D 72000 $7295 Newfield New Jersey 2020-10-10
Image 1986 Chevrolet Corvette 188000 $3700 Monticello Minnesota 2020-10-10
Image 1986 Chevrolet Corvette Coupe 2D 155000 $6000 Silver Lake Minnesota 2020-10-10
Image 1986 Chevrolet Corvette 221000 $4500 San Diego California 2020-10-10
Image 1986 Chevrolet Corvette 1000 $3000 South Richmond Hill New York 2020-10-10
Image 1986 Chevrolet Corvette Hatchback Coupe 2D 59000 $3600 Ridgewood New York 2020-10-10
Image 1986 Chevrolet Corvette Coupe 2D 137000 $12345 North Las Vegas Nevada 2020-10-10
Image 1987 Chevrolet Corvette Hatchback Coupe 2D 123000 $2500 Indianapolis IN 2020-10-22
Image 1987 Chevrolet Corvette 88000 $8900 Crystal Lake Illinois 2020-10-22
Image 1987 Chevrolet Corvette Hatchback Coupe 2D 125000 $9750 Hayward California 2020-10-22
Image 1987 Chevrolet Corvette Coupe 2D 65000 $12500 Pasadena Maryland 2020-10-22
Image 1987 Chevrolet Corvette Convertible 2D 274000 $3500 Sarasota Florida 2020-10-21
Image 1987 Chevrolet Corvette Coupe 2D 228000 $4000 Roseville California 2020-10-18
Image 1987 Chevrolet Corvette Hatchback Coupe 2D 137000 $4900 Waukesha Wisconsin 2020-10-18
Image 1987 Chevrolet Corvette Coupe 2D 119000 $5500 Woonsocket Rhode Island 2020-10-18
Image 1987 Chevrolet Corvette Coupe 2D 110000 $5000 Gallatin Tennessee 2020-10-18
Image 1987 Chevrolet Corvette Coupe 2D 126000 $7500 Port Richey Florida 2020-10-18
Image 1987 Chevrolet Corvette 80000 $4000 Indianapolis IN 2020-10-18
Image 1987 Chevrolet Corvette Hatchback Coupe 2D 144000 $6000 Hastings Florida 2020-10-18
Image 1987 Chevrolet Corvette Coupe 2D 68000 $1999 Washington PA 2020-10-17
Image 1987 Chevrolet Corvette Convertible 2D 122000 $6750 Pleasant Hill Missouri 2020-10-17
Image 1987 Chevrolet Corvette Coupe 2D 81000 $6500 Union Missouri 2020-10-17
Image 1987 Chevrolet Corvette 52000 $6000 Philadelphia Pennsylvania 2020-10-17
Image 1987 Chevrolet Corvette 427 Convertible 2D 123000 $9500 Waxahachie Texas 2020-10-12
Image 1987 Chevrolet Corvette Convertible 2D 101000 $4700 Orland Park Illinois 2020-10-12
Image 1987 Chevrolet Corvette 39000 $10000 Pittsburgh Pennsylvania 2020-10-12
Image 1987 Chevrolet Corvette Hard Top 2D 125000 $8000 Memphis Tennessee 2020-10-12
Image 1987 Chevrolet Corvette 111000 $2500 New Palestine Indiana 2020-10-12
Image 1987 Chevrolet Corvette Coupe 2D 107000 $7500 Greenbelt Maryland 2020-10-10
Image 1987 Chevrolet Corvette Convertible 2D 67000 $4500 St Paul Minnesota 2020-10-10
Image 1987 Chevrolet Corvette Coupe 2D 94000 $6500 Yulee Florida 2020-10-10
Image 1988 Chevrolet Corvette 100000 $3000 Woodhaven Michigan 2020-10-22
Image 1988 Chevrolet Corvette 220000 $12000 Fallbrook California 2020-10-18
Image 1988 Chevrolet Corvette Convertible 2D 130000 $3000 Winter Haven Florida 2020-10-18
Image 1988 Chevrolet Corvette Convertible 2D 79000 $7500 Deming New Mexico 2020-10-18
Image 1988 Chevrolet Corvette Hatchback Coupe 2D 67000 $15595 Addison Illinois 2020-10-18
Image 1988 Chevrolet Corvette Hatchback Coupe 2D 170000 $3500 Pageland South Carolina 2020-10-18
Image 1988 Chevrolet Corvette Coupe 2D 177000 $4500 San Antonio Texas 2020-10-18
Image 1988 Chevrolet Corvette Convertible 2D 74000 $8900 Westminster Maryland 2020-10-17
Image 1988 Chevrolet Corvette 105000 $6300 Weatherford Texas 2020-10-17
Image 1988 Chevrolet Corvette Convertible 2D 56000 $10600 Mokena Illinois 2020-10-17
Image 1988 Chevrolet Corvette Coupe 2D 56000 $3000 Houma Louisiana 2020-10-17
Image 1988 Chevrolet Corvette Convertible 2D 98000 $5500 Tarrytown New York 2020-10-17
Image 1988 Chevrolet Corvette Parts or Project $2500 110000 $2025 Albemarle North Carolina 2020-10-17
Image 1988 Chevrolet Corvette Coupe 2D 120000 $6500 Columbus Ohio 2020-10-12
Image 1988 Chevrolet Corvette Convertible 2D 104000 $7995 Independence Missouri 2020-10-12
Image 1988 Chevrolet Corvette Coupe 2D 45000 $9000 Smyrna Delaware 2020-10-10
Image 1988 Chevrolet Corvette Coupe 2D 101000 $4000 Sunnyvale California 2020-10-10
Image 1988 Chevrolet Corvette 105000 $6300 Weatherford Texas 2020-10-10
Image 1988 Chevrolet Corvette Convertible 2D 147000 $6500 Jacksonville Florida 2020-10-10
Image 1988 Chevrolet Corvette Convertible 2D 65000 $6999 Olathe Kansas 2020-10-10
Image 1989 Chevrolet Corvette Coupe 2D 103000 $6800 Martinsville Indiana 2020-10-22
Image 1989 Chevrolet Corvette Convertible 2D 36000 $15000 Sloan Nevada 2020-10-22
Image 1989 Chevrolet Corvette Hatchback Coupe 2D 140000 $7000 Moraine Ohio 2020-10-22
Image 1989 Chevrolet Corvette Convertible 2D 66000 $10000 Oklahoma City OK 2020-10-21
Image 1989 Chevrolet Corvette Coupe 2D 123000 $2222 Shelocta Pennsylvania 2020-10-21
Image 1989 Chevrolet Corvette Convertible 2D 151000 $4200 Clearwater Florida 2020-10-21
Image 1989 Chevrolet Corvette Coupe 2D 124000 $5899 El Cajon California 2020-10-21
Image 1989 Chevrolet Corvette Convertible 2D 84000 $9500 Green Valley Arizona 2020-10-18
Image 1989 Chevrolet Corvette Convertible 2D 158000 $6000 Kansas City MO 2020-10-18
Image 1989 Chevrolet Corvette Removable smoked moon roof 31000 $14000 Apache Junction Arizona 2020-10-17
Image 1989 Chevrolet Corvette Coupe 2D 110000 $5295 Pittsburgh Pennsylvania 2020-10-17
Image 1989 Chevrolet Corvette Convertible 2D 110000 $2500 Miami Florida 2020-10-17
Image 1989 Chevrolet Corvette 16000 $2800 Jacksonville Florida 2020-10-17
Image 1989 Chevrolet Corvette Hatchback Coupe 2D 109000 $6000 Bremerton Washington 2020-10-17
Image 1989 Chevrolet Corvette Hatchback Coupe 2D 138000 $6800 Lynn Massachusetts 2020-10-12
Image 1989 Chevrolet Corvette Convertible 2D 109000 $9500 Vancouver Washington 2020-10-12
Image 1989 Chevrolet Corvette 55000 $6000 Manassas Virginia 2020-10-12
Image 1989 Chevrolet Corvette Hatchback Coupe 2D 118000 $5000 Hialeah Florida 2020-10-12
Image 1989 Chevrolet Corvette Convertible 2D 54000 $8900 St Petersburg Florida 2020-10-10
Image 1989 Chevrolet Corvette 49000 $4500 Wesley Chapel Florida 2020-10-10
Image 1989 Chevrolet Corvette Hatchback Coupe 2D 120000 $6000 Dayton Oregon 2020-10-10
Image 1989 Chevrolet Corvette Hatchback Coupe 2D 57000 $15000 Jacksonville Florida 2020-10-10
Image 1989 Chevrolet Corvette 57000 $15000 Jacksonville Florida 2020-10-10
Image 1989 Chevrolet Corvette 109000 $4500 South Amboy New Jersey 2020-10-10
Image 1989 Chevrolet Corvette 66000 $12000 Oklahoma City OK 2020-10-10
Image 1989 Chevrolet Corvette Hatchback Coupe 2D 84000 $7900 Moraine Ohio 2020-10-10
Image 1990 Chevrolet Corvette Convertible 2D 139000 $8000 Stockton California 2020-10-22
Image 1990 Chevrolet Corvette Stingray Convertible 2D 85000 $8500 Troy Michigan 2020-10-22
Image 1990 Chevrolet Corvette Hard Top 2D 150000 $7000 Shelby Michigan 2020-10-22
Image 1990 Chevrolet Corvette Grand Sport Coupe 2D 122000 $6000 Minneapolis Minnesota 2020-10-22
Image 1990 Chevrolet Corvette Convertible 2D 67000 $8900 Florence Kentucky 2020-10-22
Image 1990 Chevrolet Corvette Hatchback Coupe 2D 54000 $8900 Nashville Tennessee 2020-10-18
Image 1990 Chevrolet Corvette Hatchback Coupe 2D 69000 $11000 Denver Colorado 2020-10-18
Image 1990 Chevrolet Corvette ZR1 Convertible 2D 29000 $22000 Henderson Nevada 2020-10-18
Image 1990 Chevrolet Corvette Coupe 2D 100000 $3400 Murfreesboro Tennessee 2020-10-17
Image 1990 Chevrolet Corvette Convertible 2D 111000 $5400 Boonton New Jersey 2020-10-17
Image 1990 Chevrolet Corvette ZR1 Coupe 2D 112000 $15000 Salinas California 2020-10-17
Image 1990 Chevrolet Corvette Convertible 2D 125000 $4000 Williamstown New Jersey 2020-10-17
Image 1990 Chevrolet Corvette Coupe 2D 95000 $7500 Monticello Minnesota 2020-10-12
Image 1990 Chevrolet Corvette Hatchback Coupe 2D 134000 $5500 Wentzville Missouri 2020-10-12
Image 1990 Chevrolet Corvette Coupe 2D 63000 $5500 Orlando Florida 2020-10-12
Image 1990 Chevrolet Corvette Convertible 2D 33000 $9000 Smithfield Pennsylvania 2020-10-12
Image 1990 Chevrolet Corvette Coupe 2D 103000 $9995 Greenfield Indiana 2020-10-12
Image 1990 Chevrolet Corvette 65000 $7500 Steubenville Ohio 2020-10-10
Image 1990 Chevrolet Corvette Convertible 2D 135000 $8000 Aromas California 2020-10-10
Image 1990 Chevrolet Corvette Coupe 2D 77000 $5000 Lindenhurst New York 2020-10-10
Image 1990 Chevrolet Corvette Hatchback Coupe 2D 125000 $9000 Beavercreek Ohio 2020-10-10
Image 1990 Chevrolet Corvette Convertible 2D 67000 $8900 Florence Kentucky 2020-10-10
Image 1991 Chevrolet Corvette Hatchback Coupe 2D 109000 $6500 Chicago Illinois 2020-10-22
Image 1991 Chevrolet Corvette Coupe 2D 105000 $6000 Dripping Springs Texas 2020-10-22
Image 1991 Chevrolet Corvette Coupe 2D 76000 $6500 Brockton Massachusetts 2020-10-21
Image 1991 Chevrolet Corvette 427 Convertible 2D 110000 $6500 Kissimmee Florida 2020-10-18
Image 1991 Chevrolet Corvette Coupe 2D 49000 $8500 Douglasville Georgia 2020-10-18
Image 1991 Chevrolet Corvette 123000 $4321 Martinsville Indiana 2020-10-18
Image 1991 Chevrolet Corvette Coupe 2D 110000 $9500 Redmond Washington 2020-10-17
Image 1991 Chevrolet Corvette Coupe 2D 85000 $7100 Rowland Heights California 2020-10-17
Image 1991 Chevrolet Corvette 176000 $3000 Los Angeles California 2020-10-17
Image 1991 Chevrolet Corvette Coupe 2D 145000 $5000 Plymouth Wisconsin 2020-10-17
Image 1991 Chevrolet Corvette Convertible 2D 126000 $4500 Houston Texas 2020-10-12
Image 1991 Chevrolet Corvette Coupe 2D 80000 $5800 Georgetown Massachusetts 2020-10-12
Image 1991 Chevrolet Corvette Hatchback Coupe 2D 160000 $4000 Clarksville Tennessee 2020-10-12
Image 1991 Chevrolet Corvette Convertible 2D 30000 $16000 Murrysville Pennsylvania 2020-10-12
Image 1991 Chevrolet Corvette Coupe 2D 55000 $13000 Wayne New Jersey 2020-10-12
Image 1991 Chevrolet Corvette Hatchback Coupe 2D 122000 $4000 Tarpon Springs Florida 2020-10-12
Image 1991 Chevrolet Corvette Convertible 2D 68000 $3800 Clermont Florida 2020-10-10
Image 1992 Chevrolet Corvette Convertible 2D 45000 $9999 Sterling Heights Michigan 2020-10-22
Image 1992 Chevrolet Corvette Convertible 2D 68000 $9500 Powell Ohio 2020-10-22
Image 1992 Chevrolet Corvette Hatchback Coupe 2D 89000 $6500 Copiague New York 2020-10-22
Image 1992 Chevrolet Corvette Hatchback Coupe 2D 140000 $12000 Atlanta Georgia 2020-10-18
Image 1992 Chevrolet Corvette Hatchback Coupe 2D 125000 $6800 Lakewood Colorado 2020-10-18
Image 1992 Chevrolet Corvette Hatchback Coupe 2D 125000 $6800 Denver Colorado 2020-10-18
Image 1992 Chevrolet Corvette Convertible 2D 17000 $9000 San Jose California 2020-10-17
Image 1992 Chevrolet Corvette Convertible 2D 75000 $7800 Basehor Kansas 2020-10-17
Image 1992 Chevrolet Corvette 250000 $5000 Auburndale Florida 2020-10-17
Image 1992 Chevrolet Corvette 146000 $7500 Portland Oregon 2020-10-12
Image 1992 Chevrolet Corvette Hatchback Coupe 2D 157000 $4000 Casselberry Florida 2020-10-12
Image 1992 Chevrolet Corvette 1000 $3000 Galloway New Jersey 2020-10-12
Image 1992 Chevrolet Corvette Convertible 2D 58000 $10000 Indianapolis IN 2020-10-12
Image 1992 Chevrolet Corvette Convertible 2D 88000 $2500 Bradenton Florida 2020-10-10
Image 1992 Chevrolet Corvette Convertible 2D 78000 $7000 Peabody Massachusetts 2020-10-10
Image 1992 Chevrolet Corvette Hatchback Coupe 2D 50000 $9995 Circle Pines Minnesota 2020-10-10
Image 1993 Chevrolet Corvette Coupe 2D 109000 $8889 Pompano Beach Florida 2020-10-22
Image 1993 Chevrolet Corvette 29000 $13800 Mokena Illinois 2020-10-22
Image 1993 Chevrolet Corvette Coupe 2D 108000 $5000 Katy Texas 2020-10-22
Image 1993 Chevrolet Corvette 78000 $8500 Staten Island New York 2020-10-22
Image 1993 Chevrolet Corvette 130000 $8000 Staten Island New York 2020-10-22
Image 1993 Chevrolet Corvette Coupe 2D 91000 $6500 Sparta New Jersey 2020-10-22
Image 1993 Chevrolet Corvette Coupe 2D 138000 $7500 Owensville Ohio 2020-10-22
Image 1993 Chevrolet Corvette Coupe 2D 55000 $10000 Dallas Texas 2020-10-18
Image 1993 Chevrolet Corvette Coupe 2D 149000 $3950 Pinellas Park Florida 2020-10-18
Image 1993 Chevrolet Corvette 40th anniversary 134000 $7500 Goodyear Arizona 2020-10-17
Image 1993 Chevrolet Corvette 105000 $17500 Ellwood City Pennsylvania 2020-10-17
Image 1993 Chevrolet Corvette Coupe 2D 20000 $15900 New Castle Pennsylvania 2020-10-17
Image 1993 Chevrolet Corvette Coupe 2D 100000 $3000 Griffin Georgia 2020-10-17
Image 1993 Chevrolet Corvette Coupe 2D 90000 $4000 Joppa Maryland 2020-10-17
Image 1993 Chevrolet Corvette Coupe 2D 118000 $6000 Lincoln Park New Jersey 2020-10-17
Image 1993 Chevrolet Corvette Convertible 2D 100000 $7300 DeLand Florida 2020-10-17
Image 1993 Chevrolet Corvette Coupe 2D 51000 $10500 Orlando Florida 2020-10-17
Image 1993 Chevrolet Corvette Convertible 2D 54000 $9500 Maitland Florida 2020-10-17
Image 1993 Chevrolet Corvette Convertible 2D 71000 $8500 Madison Indiana 2020-10-12
Image 1993 Chevrolet Corvette 108000 $5000 Katy Texas 2020-10-12
Image 1993 Chevrolet Corvette Coupe 2D 111000 $7000 Carol Stream Illinois 2020-10-12
Image 1993 Chevrolet Corvette Coupe 2D 115000 $8000 Worth Illinois 2020-10-12
Image 1993 Chevrolet Corvette Convertible 2D 131000 $6500 Columbus Ohio 2020-10-12
Image 1993 Chevrolet Corvette Coupe 2D 58000 $10300 Columbus Ohio 2020-10-12
Image 1993 Chevrolet Corvette Coupe 2D 80000 $8500 Clarksville Tennessee 2020-10-12
Image 1993 Chevrolet Corvette Convertible 2D 16000 $22500 Leesburg Virginia 2020-10-12
Image 1993 Chevrolet Corvette Coupe 2D 96000 $8850 Poolesville Maryland 2020-10-12
Image 1993 Chevrolet Corvette Coupe 2D 66000 $10000 Hollywood Florida 2020-10-12
Image 1993 Chevrolet Corvette Coupe 2D 85000 $13000 Greenwood Indiana 2020-10-12
Image 1993 Chevrolet Corvette Coupe 2D 76000 $9500 Indian Trail North Carolina 2020-10-12
Image 1993 Chevrolet Corvette Coupe 2D 46000 $13500 Salisbury North Carolina 2020-10-12
Image 1993 Chevrolet Corvette Coupe 2D 89000 $8000 Kouts Indiana 2020-10-10
Image 1993 Chevrolet Corvette 82000 $2700 Bristol Rhode Island 2020-10-10
Image 1993 Chevrolet Corvette 2D Coupe 124000 $6850 Hickory North Carolina 2020-10-10
Image 1994 Chevrolet Corvette Coupe 2D 12000 $4300 Miami Florida 2020-10-22
Image 1994 Chevrolet Corvette Coupe 2D 144000 $6100 Tipton Indiana 2020-10-22
Image 1994 Chevrolet Corvette Coupe 2D 70000 $6000 Garyville Louisiana 2020-10-22
Image 1994 Chevrolet Corvette Coupe 2D 140000 $4500 El Paso Texas 2020-10-22
Image 1994 Chevrolet Corvette Convertible 2D 47000 $19000 Lady Lake Florida 2020-10-21
Image 1994 Chevrolet Corvette Coupe 2D 57000 $10500 Altamonte Springs Florida 2020-10-21
Image 1994 Chevrolet Corvette Coupe 2D 135000 $9000 Little Elm Texas 2020-10-18
Image 1994 Chevrolet Corvette 94000 $8000 Santa Fe New Mexico 2020-10-18
Image 1994 Chevrolet Corvette Coupe 2D 104000 $12500 Washington DC 2020-10-18
Image 1994 Chevrolet Corvette Coupe 2D 105000 $11500 Pleasant View Tennessee 2020-10-17
Image 1994 Chevrolet Corvette Coupe 2D 90000 $10000 Hammond Louisiana 2020-10-17
Image 1994 Chevrolet Corvette Coupe 2D 46000 $8000 Trenton New Jersey 2020-10-17
Image 1994 Chevrolet Corvette Convertible 2D 100000 $3995 Santa Ana California 2020-10-17
Image 1994 Chevrolet Corvette Coupe 2D 166000 $6950 Munford Tennessee 2020-10-12
Image 1994 Chevrolet Corvette Coupe 2D 76000 $7900 Indianapolis IN 2020-10-12
Image 1994 Chevrolet Corvette Convertible 2D 32000 $10000 Massapequa New York 2020-10-12
Image 1994 Chevrolet Corvette Coupe 2D 96000 $7500 Colonia New Jersey 2020-10-12
Image 1995 Chevrolet Corvette 44000 $11500 Miami Florida 2020-10-22
Image 1995 Chevrolet Corvette Coupe 2D 95000 $9000 Columbus Indiana 2020-10-22
Image 1995 Chevrolet Corvette Coupe 2D 111000 $3500 Lockeford California 2020-10-22
Image 1995 Chevrolet Corvette Coupe 2D 105000 $9000 Milford Michigan 2020-10-22
Image 1995 Chevrolet Corvette 176000 $5500 Orlando Florida 2020-10-18
Image 1995 Chevrolet Corvette 95000 $6200 Dallas Texas 2020-10-18
Image 1995 Chevrolet Corvette Coupe 2D 130000 $7500 Medway Massachusetts 2020-10-18
Image 1995 Chevrolet Corvette Coupe 2D 110000 $7500 Hutchinson Pennsylvania 2020-10-17
Image 1995 Chevrolet Corvette ZR1 Coupe 2D 137000 $5500 Miami Florida 2020-10-17
Image 1995 Chevrolet Corvette Convertible 2D 148000 $3300 Pompano Beach Florida 2020-10-17
Image 1995 Chevrolet Corvette Convertible 2D 148000 $5500 Crofton Maryland 2020-10-17
Image 1995 Chevrolet Corvette Coupe 2D 90000 $3500 Woodside New York 2020-10-17
Image 1995 Chevrolet Corvette Coupe 2D 100000 $6000 Louisville Kentucky 2020-10-12
Image 1995 Chevrolet Corvette Coupe 2D 73000 $8500 Roseville Minnesota 2020-10-12
Image 1995 Chevrolet Corvette Convertible 2D 106000 $9998 Orlando Florida 2020-10-12
Image 1995 Chevrolet Corvette Coupe 2D 161000 $4950 San Bruno California 2020-10-12
Image 1995 Chevrolet Corvette Convertible 2D 100000 $4500 Ewing New Jersey 2020-10-10
Image 1996 Chevrolet Corvette Grand Sport Coupe 2D 102000 $8600 Columbus Ohio 2020-10-22
Image 1996 Chevrolet Corvette 114000 $7500 Blue Springs Missouri 2020-10-22
Image 1996 Chevrolet Corvette Convertible 2D 54000 $13995 Maineville OH 2020-10-22
Image 1996 Chevrolet Corvette Coupe 2D 119000 $5900 Warrenton Virginia 2020-10-22
Image 1996 Chevrolet Corvette Coupe 2D 98000 $11000 Worcester Massachusetts 2020-10-21
Image 1996 Chevrolet Corvette Coupe 2D 122000 $6500 Phoenix Arizona 2020-10-21
Image 1996 Chevrolet Corvette Coupe 2D 155000 $11500 Tempe Arizona 2020-10-21
Image 1996 Chevrolet Corvette Coupe 2D 79000 $8995 Cleburne Texas 2020-10-18
Image 1996 Chevrolet Corvette Coupe 2D 168000 $7800 Pacoima California 2020-10-18
Image 1996 Chevrolet Corvette Coupe 2D 42000 $11500 Brighton Michigan 2020-10-18
Image 1996 Chevrolet Corvette 170000 $7500 Yorktown Indiana 2020-10-18
Image 1996 Chevrolet Corvette Coupe 2D 119000 $4500 Gainesville Virginia 2020-10-18
Image 1996 Chevrolet Corvette Grand Sport Coupe 2D 230000 $10000 Jersey Village Texas 2020-10-17
Image 1996 Chevrolet Corvette Grand Sport Convertible 2D 64000 $10000 Sacramento California 2020-10-17
Image 1996 Chevrolet Corvette Coupe 2D 58000 $13000 Wentzville Missouri 2020-10-17
Image 1996 Chevrolet Corvette Convertible 2D 79000 $19999 Austin Texas 2020-10-17
Image 1996 Chevrolet Corvette Coupe 2D 96000 $11900 Kingwood Texas 2020-10-12
Image 1996 Chevrolet Corvette Coupe 2D 176000 $7000 Gaithersburg Maryland 2020-10-12
Image 1996 Chevrolet Corvette Coupe 2D 54000 $9800 Oklahoma City OK 2020-10-12
Image 1996 Chevrolet Corvette Targa top 186000 $3250 Atoka Tennessee 2020-10-12
Image 1996 Chevrolet Corvette Coupe 2D 43000 $8900 Monroeville New Jersey 2020-10-10
Image 1996 Chevrolet Corvette Coupe 2D 98000 $8500 Arvada Colorado 2020-10-10
Image 1996 Chevrolet Corvette Collectors Edition 67000 $15000 Islip New York 2020-10-10
Image 1996 Chevrolet Corvette Coupe 2D 76000 $9999 New Albany Ohio 2020-10-10
Image 1996 Chevrolet Corvette 79000 $10000 Kansas City MO 2020-10-10
Image 1996 Chevrolet Corvette Convertible 2D 150000 $4000 Kenosha Wisconsin 2020-10-10

User avatar
Feed
Site Admin
Posts: 2552
Joined: Fri Jul 31, 2020 9:57 am

Re: Chevrolet Corvette 1984-1996 (C4)

Post by Feed »

Found on 08-22-2020

If you like this kind of thing, subscribe to our mailing list for updates. It's worth your time, I promise. We also have a Discord server.

Image
1984 Corvette Coupe 2D
Washington, MI
143000 miles
$6000

Image
1984 Corvette
Slidell, Louisiana
32000 miles
$10000

Image
1984 Corvette
Wiggins, Mississippi
106000 miles
$8800

Image
1984 Corvette
Rayne, Louisiana
82000 miles
$5500

Image
1984 Corvette
Pollock, Louisiana
69000 miles
$5500

Image
1984 Corvette
Mobile, Alabama
140000 miles
$7000

Image
1984 Corvette Hard Top 2D
Beach Park, Illinois
123000 miles
$2700

Image
1984 Corvette Coupe 2D
Bennett, Colorado
87000 miles
$1500

Image
1984 Corvette Coupe 2D
Katy, Texas
83000 miles
$13999

Image
1984 Corvette
Clackamas, Oregon
54000 miles
$12345

Image
1984 Corvette Hatchback Coupe 2D
Ekron, Kentucky
45000 miles
$5500

Image
1984 Corvette
Charlestown, Indiana
62000 miles
$7500

Image
1984 Corvette Hard Top 2D
St Charles, Missouri
202000 miles
$3000

Image
1984 Corvette Hard Top 2D
Columbus, Ohio
56000 miles
$8200

Image
1984 Corvette Hard Top Coupe 2D
Columbus, Ohio
119000 miles
$4200

Image
1985 Corvette Hard Top Coupe 2D
Westland, Michigan
129000 miles
$5000

Image
1985 Corvette Coupe 2D
Rochester, Michigan
82000 miles
$7500

Image
1985 Corvette
Covington, Louisiana
116000 miles
$2000

Image
1985 Corvette
Waveland, Mississippi
131000 miles
$4995

Image
1985 Corvette
Crestview, Florida
105000 miles
$6500

Image
1985 Corvette Coupe 2D
Louisville, Kentucky
95000 miles
$6000

Image
1985 Corvette
Lawrenceburg, Kentucky
300 miles
$8500

Image
1985 Corvette
Concord, North Carolina
29000 miles
$8950

Image
1985 Corvette
Madison, Tennessee
100000 miles
$9500

Image
1985 Corvette Hard Top 2D
Cincinnati, Ohio
68000 miles
$2200

Image
1985 Corvette
Osteen, Florida
97000 miles
$2800

Image
1986 Corvette Coupe 2D
Nineveh, Indiana
126000 miles
$1950

Image
1986 Corvette
Thibodaux, Louisiana
75000 miles
$6500

Image
1986 Corvette
Pensacola, Florida
118000 miles
$4000

Image
1986 Corvette
Rayne, Louisiana
150000 miles
$4995

Image
1986 Corvette
Lebanon, Tennessee
130000 miles
$5000

Image
1986 Corvette Coupe 2D
Peoria, Arizona
26000 miles
$9000

Image
1986 Corvette Coupe 2D
Oak Ridge, New Jersey
50000 miles
$7000

Image
1986 Corvette
Staten Island, New York
13000 miles
$5000

Image
1987 Corvette Coupe 2D
Indianapolis, IN
113000 miles
$6800

Image
1987 Corvette
Picayune, Mississippi
250000 miles
$5000

Image
1987 Corvette
Lake Charles, Louisiana
79000 miles
$5000

Image
1987 Corvette
Hampshire, Illinois
67000 miles
$9850

Image
1987 Corvette Coupe 2D
Feasterville-Trevose, Pennsylvania
60000 miles
$3100

Image
1987 Corvette ZR1 Coupe 2D
Hudson, Florida
52000 miles
$4800

Image
1987 Corvette
Dayton, Ohio
45000 miles
$8900

Image
1987 Corvette
Middlesex, New Jersey
62000 miles
$7200

Image
1988 Corvette Grand Sport Coupe 2D
Sealy, Texas
48000 miles
$12000

Image
1988 Corvette Coupe 2D
Salem, Oregon
121000 miles
$8995

Image
1988 Corvette Hatchback Coupe 2D
Brandenburg, Kentucky
55000 miles
$9000

Image
1988 Corvette Coupe 2D
Eckerty, Indiana
125000 miles
$6075

Image
1988 Corvette Coupe 2D
Southampton, New Jersey
129000 miles
$5650

Image
1988 Corvette Stingray
New Port Richey, Florida
180000 miles
$7000

Image
1988 Corvette Hard Top 2D
Independence, Missouri
173000 miles
$3800

Image
1988 Corvette
Harrisonville, Missouri
76000 miles
$8995

Image
1988 Corvette Hard Top Coupe 2D
Marysville, Ohio
64000 miles
$9000

Image
1988 Corvette
Rocky Ridge, Maryland
6000 miles
$13000

Image
1989 Corvette Hard Top Coupe 2D
Frederick, Maryland
62000 miles
$6000

Image
1989 Corvette
Howell, Michigan
54000 miles
$9000

Image
1989 Corvette
New Orleans, Louisiana
106000 miles
$7500

Image
1989 Corvette
Bay Minette, Alabama
103000 miles
$4000

Image
1989 Corvette
Greenville, Mississippi
500 miles
$3995

Image
1989 Corvette
Montgomery, Alabama
40000 miles
$4500

Image
1989 Corvette
Byram, Mississippi
300 miles
$4800

Image
1989 Corvette Hard Top Coupe 2D
Crown Point, Indiana
90000 miles
$6800

Image
1989 Corvette Hatchback Coupe 2D
Houston, Texas
148000 miles
$10000

Image
1989 Corvette Coupe 2D
Sellersburg, Indiana
93000 miles
$8500

Image
1989 Corvette Hatchback Coupe 2D
Louisville, Kentucky
156000 miles
$4950

Image
1989 Corvette Coupe 2D
Louisville, Kentucky
30000 miles
$9000

Image
1989 Corvette
West Islip, New York
78000 miles
$8500

Image
1989 Corvette
Carroll, Ohio
73000 miles
$9000

Image
1990 Corvette Coupe 2D
Frisco, Texas
116000 miles
$8500

Image
1990 Corvette
Wylie, Texas
150000 miles
$6500

Image
1990 Corvette Coupe 2D
Los Angeles, California
130000 miles
$7000

Image
1990 Corvette Coupe 2D
Louisville, Kentucky
85000 miles
$4500

Image
1990 Corvette Stingray Z51
Frankfort, Kentucky
88000 miles
$8500

Image
1990 Corvette Coupe 2D
Scottsburg, Indiana
113000 miles
$6800

Image
1990 Corvette
Frankfort, Kentucky
56000 miles
$6900

Image
1990 Corvette Stingray Coupe 2D
Elizabethtown, Kentucky
46000 miles
$10000

Image
1990 Corvette 427
Albuquerque, New Mexico
110000 miles
$11500

Image
1990 Corvette
Lebanon, Tennessee
36000 miles
$20000

Image
1990 Corvette Hard Top 2D
Sorrento, Florida
79000 miles
$7500

Image
1990 Corvette Hatchback Coupe 2D
Lindenhurst, New York
96000 miles
$5000

Image
1990 Corvette
Toms River, New Jersey
99000 miles
$5995

Image
1991 Corvette
New Baltimore, Michigan
125000 miles
$7000

Image
1991 Corvette
Birmingham, Alabama
30000 miles
$12345

Image
1991 Corvette
Taylorsville, Kentucky
95000 miles
$9200

Image
1991 Corvette Hatchback Coupe 2D
Corydon, Indiana
62000 miles
$9000

Image
1991 Corvette
Murfreesboro, Tennessee
64000 miles
$8000

Image
1991 Corvette
Cincinnati, Ohio
36000 miles
$11700

Image
1991 Corvette
New York, NY
103000 miles
$2900

Image
1991 Corvette Coupe 2D
Staten Island, New York
167000 miles
$4300

Image
1992 Corvette
Macomb, Michigan
71000 miles
$7800

Image
1992 Corvette
Dearborn Heights, Michigan
93000 miles
$9500

Image
1992 Corvette
Marrero, Louisiana
38000 miles
$12995

Image
1992 Corvette
Metairie, Louisiana
87000 miles
$4500

Image
1992 Corvette
Slidell, Louisiana
103000 miles
$8000

Image
1992 Corvette
Pineville, Louisiana
162000 miles
$3500

Image
1992 Corvette Hatchback Coupe 2D
Fairdale, Kentucky
119000 miles
$8500

Image
1992 Corvette Hatchback Coupe 2D
Goodyear, Arizona
110000 miles
$4500

Image
1992 Corvette
Rockledge, Florida
132000 miles
$10000

Image
1992 Corvette Hatchback Coupe 2D
San Antonio, Texas
87000 miles
$10000

Image
1993 Corvette Coupe 2D
Reisterstown, Maryland
165000 miles
$5200

Image
1993 Corvette
Martinsville, Indiana
35000 miles
$12500

Image
1993 Corvette
Picayune, Mississippi
90000 miles
$2800

Image
1993 Corvette
Pascagoula, Mississippi
143000 miles
$6500

Image
1993 Corvette
Downsville, Louisiana
98000 miles
$9500

Image
1993 Corvette
Grove Hill, Alabama
117000 miles
$7000

Image
1993 Corvette Coupe 2D
Valparaiso, Indiana
90000 miles
$6500

Image
1993 Corvette Coupe 2D
Racine, Wisconsin
56000 miles
$7500

Image
1993 Corvette
Nashville, Tennessee
114000 miles
$8000

Image
1993 Corvette Coupe 2D
Longwood, Florida
124000 miles
$6000

Image
1994 Corvette
Curtis Bay, Maryland
103000 miles
$7000

Image
1994 Corvette
League City, Texas
151000 miles
$6500

Image
1994 Corvette
Panama City, Florida
187000 miles
$4950

Image
1994 Corvette
Milam, Texas
74000 miles
$7000

Image
1994 Corvette Coupe 2D
Katy, Texas
93000 miles
$12999

Image
1994 Corvette Coupe 2D
La Grange, Kentucky
61000 miles
$5000

Image
1994 Corvette Coupe 2D
Louisville, Kentucky
30000 miles
$11500

Image
1994 Corvette Coupe 2D
Louisville, Kentucky
73000 miles
$11500

Image
1994 Corvette
Hendersonville, Tennessee
17000 miles
$17750

Image
1994 Corvette
Murfreesboro, Tennessee
60000 miles
$9000

Image
1994 Corvette
Nashville, Tennessee
90000 miles
$6500

Image
1994 Corvette
Orlando, Florida
113000 miles
$7200

Image
1994 Corvette Coupe 2D
Massapequa, New York
106000 miles
$9200

Image
1995 Corvette Coupe 2D
Burleson, Texas
153000 miles
$7000

Image
1995 Corvette
Shady Side, Maryland
113000 miles
$6500

Image
1995 Corvette Coupe 2D
Kokomo, Indiana
198000 miles
$3650

Image
1995 Corvette Coupe 2D
Memphis, Tennessee
95000 miles
$6000

Image
1995 Corvette
Houma, Louisiana
130000 miles
$9000

Image
1995 Corvette
New Orleans, Louisiana
90000 miles
$8000

Image
1995 Corvette
Louisville, Kentucky
79000 miles
$14500

Image
1995 Corvette Coupe 2D
Louisville, Kentucky
142000 miles
$8000

Image
1995 Corvette
Jeffersonville, Indiana
38000 miles
$15000

Image
1995 Corvette Coupe 2D
Philadelphia, Pennsylvania
56000 miles
$9500

Image
1995 Corvette Coupe 2D
Ambler, Pennsylvania
203000 miles
$11000

Image
1995 Corvette
Hickory, North Carolina
16000 miles
$24900

Image
1995 Corvette
Clarksville, Tennessee
42000 miles
$10000

Image
1995 Corvette
Mt Juliet, Tennessee
103000 miles
$10000

Image
1995 Corvette
Nashville, Tennessee
89000 miles
$12500

Image
1995 Corvette
Gallatin, Tennessee
123000 miles
$7900

Image
1995 Corvette Coupe 2D
Lee's Summit, Missouri
188000 miles
$3750

Image
1996 Corvette Coupe 2D
Grand Prairie, Texas
122000 miles
$6991

Image
1996 Corvette Coupe 2D
Birmingham, Michigan
94000 miles
$10000

Image
1996 Corvette
Mandeville, Louisiana
45000 miles
$15495

Image
1996 Corvette
Moss Point, Mississippi
200000 miles
$3500

Image
1996 Corvette
Baton Rouge, Louisiana
29000 miles
$11500

Image
1996 Corvette
Palos Heights, Illinois
38000 miles
$14500

Image
1996 Corvette Coupe 2D
Milwaukee, Wisconsin
80000 miles
$5900

Image
1996 Corvette Collectors Edition
Sloughhouse, California
75000 miles
$10900

Image
1996 Corvette LT1 Collectors Edition
Ocklawaha, Florida
119000 miles
$9900

Image
1996 Corvette Coupe 2D
Haworth, New Jersey
110000 miles
$7500

Image
1996 Corvette
San Antonio, Texas
110000 miles
$10997

User avatar
Feed
Site Admin
Posts: 2552
Joined: Fri Jul 31, 2020 9:57 am

Re: Chevrolet Corvette 1984-1996 (C4)

Post by Feed »

Found on 08-24-2020

If you like this kind of thing, subscribe to our mailing list for updates. It's worth your time, I promise. We also have a Discord server.

Image
1984 Corvette Coupe 2D
Minneapolis, Minnesota
37000 miles
$8995

Image
1984 Corvette Coupe 2D
Dallas, Texas
94000 miles
$5500

Image
1984 Corvette
Wheeling, West Virginia
38000 miles
$10500

Image
1984 Corvette Coupe 2D
Leesville, Louisiana
66000 miles
$4200

Image
1984 Corvette Coupe 2D
Bethpage, New York
45000 miles
$6000

Image
1984 Corvette Hatchback Coupe 2D
Bradley Beach, New Jersey
74000 miles
$6500

Image
1984 Corvette Coupe 2D
Jacksonville, Florida
100000 miles
$5600

Image
1984 Corvette
Bremen, Georgia
300000 miles
$2000

Image
1984 Corvette Coupe 2D
West Chester, Pennsylvania
63000 miles
$3999

Image
1984 Corvette Coupe 2D
Sewell, New Jersey
168000 miles
$3200

Image
1984 Corvette
Anthony, New Mexico
109000 miles
$5300

Image
1984 Corvette Hard Top 2D
El Paso, Texas
160000 miles
$12345

Image
1984 Corvette Coupe 2D
Orlando, Florida
103000 miles
$4400

Image
1984 Corvette
Foster, Kentucky
100000 miles
$8000

Image
1984 Corvette
Hillsboro, Ohio
149000 miles
$3500

Image
1985 Corvette Coupe 2D
Dilliner, Pennsylvania
53000 miles
$7000

Image
1985 Corvette Coupe 2D
Shrub Oak, New York
80000 miles
$3500

Image
1985 Corvette Coupe 2D
Greenville, Indiana
43000 miles
$8500

Image
1985 Corvette Hard Top 2D
Kansas City, MO
123000 miles
$10000

Image
1985 Corvette Coupe 2D
Decatur, Georgia
127000 miles
$4500

Image
1985 Corvette Coupe 2D
Levittown, Pennsylvania
123000 miles
$3000

Image
1986 Corvette Coupe 2D
Parkton, Maryland
92000 miles
$4000

Image
1986 Corvette Coupe 2D
Mt Vernon, Ohio
90000 miles
$6500

Image
1986 Corvette Coupe 2D
Delmont, Pennsylvania
41000 miles
$10000

Image
1986 Corvette
Natick, Massachusetts
34000 miles
$12345

Image
1986 Corvette Hatchback Coupe 2D
Indianapolis, IN
139000 miles
$3500

Image
1986 Corvette Coupe 2D
Cartersville, Georgia
111000 miles
$7500

Image
1987 Corvette
Rosenberg, Texas
122000 miles
$11000

Image
1987 Corvette ZR1 Hatchback Coupe 2D
Princeton, Texas
94000 miles
$7500

Image
1987 Corvette Stingray Coupe 2D
Riverview, Florida
74000 miles
$12500

Image
1987 Corvette Coupe 2D
North Reading, Massachusetts
69000 miles
$7400

Image
1987 Corvette Coupe 2D
Woonsocket, Rhode Island
147000 miles
$5000

Image
1987 Corvette Coupe 2D
Carmel, Indiana
113000 miles
$7000

Image
1987 Corvette
Norcross, Georgia
100000 miles
$7999

Image
1988 Corvette
Katy, Texas
59000 miles
$12500

Image
1988 Corvette Stingray Coupe 2D
Fall River, Massachusetts
95000 miles
$6500

Image
1988 Corvette
Woodstock, Georgia
20000 miles
$6000

Image
1988 Corvette
Hoschton, Georgia
107000 miles
$8900

Image
1988 Corvette Coupe 2D
Atlanta, Georgia
147000 miles
$10000

Image
1989 Corvette
Hercules, California
53000 miles
$4000

Image
1989 Corvette
Buchanan, Georgia
140000 miles
$5000

Image
1989 Corvette
Sharpsburg, Georgia
123000 miles
$6000

Image
1989 Corvette
Norcross, Georgia
101000 miles
$5800

Image
1990 Corvette Coupe 2D
Chicago, Illinois
63000 miles
$7995

Image
1990 Corvette
Acworth, Georgia
150000 miles
$5900

Image
1991 Corvette Hard Top 2D
Minneapolis, Minnesota
110000 miles
$8000

Image
1991 Corvette Coupe 2D
Jacksonville, Florida
119000 miles
$10000

Image
1991 Corvette ZR1 Coupe 2D
Marietta, Georgia
75000 miles
$15500

Image
1991 Corvette ZR1 Coupe 2D
Huntingdon Valley, Pennsylvania
19000 miles
$12345

Image
1991 Corvette Coupe 2D
Lancaster, California
170000 miles
$3500

Image
1992 Corvette Hatchback Coupe 2D
Sarver, Pennsylvania
58000 miles
$11000

Image
1992 Corvette Hatchback Coupe 2D
Boston, Massachusetts
110000 miles
$5500

Image
1992 Corvette
Acworth, Georgia
130000 miles
$7000

Image
1992 Corvette Hatchback Coupe 2D
Lebanon, Ohio
44000 miles
$10400

Image
1992 Corvette
Castaic, California
60000 miles
$6500

Image
1993 Corvette
Burnsville, Minnesota
53000 miles
$9950

Image
1993 Corvette
Ozark, Alabama
132000 miles
$7500

Image
1993 Corvette Coupe 2D
Tyrone, Georgia
87000 miles
$11000

Image
1993 Corvette Coupe 2D
Duluth, Georgia
79000 miles
$6700

Image
1993 Corvette
Newnan, Georgia
150000 miles
$12345

Image
1994 Corvette
League City, Texas
151000 miles
$6500

Image
1994 Corvette Coupe 2D
Detroit, Michigan
100000 miles
$7000

Image
1994 Corvette Coupe 2D
Rochester, Michigan
188000 miles
$8999

Image
1994 Corvette
Mobile, Alabama
71000 miles
$10000

Image
1994 Corvette Coupe 2D
Griffin, Georgia
76000 miles
$7500

Image
1995 Corvette
St Charles, Missouri
100000 miles
$7000

Image
1995 Corvette Coupe 2D
Canton, Massachusetts
40000 miles
$10000

Image
1995 Corvette
Middleburg, Florida
140000 miles
$4500

Image
1995 Corvette Coupe 2D
Alpharetta, Georgia
23000 miles
$15000

Image
1995 Corvette
Roebling, New Jersey
878000 miles
$7000

Image
1996 Corvette
Kenosha, Wisconsin
116000 miles
$8250

Image
1996 Corvette
Brighton, Michigan
42000 miles
$11500

Image
1996 Corvette Coupe 2D
Hessmer, Louisiana
120000 miles
$2430

Image
1996 Corvette Coupe 2D
Yonkers, New York
65000 miles
$11000

Image
1996 Corvette Coupe 2D
Kingsland, Georgia
84000 miles
$11500

Image
1996 Corvette Coupe 2D
Suwanee, Georgia
76000 miles
$9900

Image
1996 Corvette Coupe 2D
Bordentown, New Jersey
78000 miles
$6000

Post Reply